Impacts METAR Board
IDs:

KMCO - Orlando Intl, FL, US

Updated at: 0900 UTC 07 Dec 2022
Potential Impact None Slight Moderate High
Time 06/21Z 06/22Z 06/23Z 07/00Z 07/01Z 07/02Z 07/03Z 07/04Z 07/05Z 07/06Z 07/07Z 07/08Z 07/09Z
Temp79 78 74 72 70 69 68 67 67 65 64 64 63
Dewpt60 61 65 64 64 63 63 63 63 63 61 62 62
Altim30.17 30.18 30.20 30.21 30.22 30.23 30.24 30.24 30.24 30.24 30.23 30.23 30.23
VIS10 10 10 10 10 10 10 10 10 10 10 10 10
CIG65 65 65 70 -- -- -- -- -- -- -- -- --
CoverBKNBKNBKNBKNFEWCLRCLRCLRCLRCLRCLRCLRCLR
FltCatVFRVFRVFRVFRVFRVFRVFRVFRVFRVFRVFRVFRVFR
WX--------------------------
WDir503080706070603500003100
WSpd6 7 7 5 5 5 4 3 0 0 0 3 0
WGst-- -- -- -- -- -- -- -- -- -- -- -- --
Raw hourly METARs
KMCO 062053Z 05006KT 10SM FEW040 BKN065 26/16 A3017 RMK AO2 SLP213 T02610156 55003
KMCO 062153Z 03007KT 10SM FEW040 BKN065 26/16 A3018 RMK AO2 SLP218 T02560161
KMCO 062253Z 08007KT 10SM BKN065 23/18 A3020 RMK AO2 SLP224 T02330183
KMCO 062353Z 07005KT 10SM BKN070 22/18 A3021 RMK AO2 SLP227 T02220178 10283 20222 51014
KMCO 070053Z 06005KT 10SM FEW070 21/18 A3022 RMK AO2 SLP233 T02110178
KMCO 070153Z 07005KT 10SM CLR 21/17 A3023 RMK AO2 SLP236 T02060172
KMCO 070253Z 06004KT 10SM CLR 20/17 A3024 RMK AO2 SLP238 T02000172 51012
KMCO 070353Z 35003KT 10SM CLR 19/17 A3024 RMK AO2 SLP239 T01940172
KMCO 070453Z 00000KT 10SM CLR 19/17 A3024 RMK AO2 SLP239 T01940172 402830167
KMCO 070553Z 00000KT 10SM CLR 18/17 A3024 RMK AO2 SLP237 T01830172 10222 20183 58001
KMCO 070653Z 00000KT 10SM CLR 18/16 A3023 RMK AO2 SLP235 T01780161
KMCO 070753Z 31003KT 10SM CLR 18/17 A3023 RMK AO2 SLP234 T01780167
KMCO 070853Z 00000KT 10SM CLR 17/17 A3023 RMK AO2 SLP236 T01720167 55002



Page loaded:  09:58 UTC  |   01:58 AM Pacific  |   02:58 AM Mountain  |   03:58 AM Central  |   04:58 AM Eastern

 

ADVISORIES

FORECASTS

FORECASTS

OBSERVATIONS

USER TOOLS

ABOUT US